Time;durP1;ratioP1;P1;durP2;ratioP2;P2;SDS_P1;SDS_P2;PMS_P1;PMS_P2;Temp;Humidity;BMP_temperature;BMP_pressure;BME280_temperature;BME280_humidity;BME280_pressure;Samples;Min_cycle;Max_cycle;Signal;HPM_P1;HPM_P2
2021/07/24 00:02:11;;;;;;;3.40;3.20;;;26.60;64.20;;;;;;5070045;28;20064;-30
2021/07/24 00:04:37;;;;;;;3.08;2.88;;;26.60;63.90;;;;;;5066973;28;20040;-29
2021/07/24 00:07:03;;;;;;;3.17;2.95;;;26.60;64.00;;;;;;5066132;28;20117;-29
2021/07/24 00:09:29;;;;;;;3.25;2.95;;;26.50;64.40;;;;;;5068746;28;20210;-27
2021/07/24 00:11:55;;;;;;;3.13;2.92;;;26.50;64.20;;;;;;5066159;28;20041;-28
2021/07/24 00:14:21;;;;;;;3.55;3.25;;;26.50;65.20;;;;;;5066048;28;20048;-27
2021/07/24 00:16:46;;;;;;;3.22;3.03;;;26.50;64.40;;;;;;5068646;28;20064;-27
2021/07/24 00:19:12;;;;;;;3.38;3.10;;;26.30;65.50;;;;;;5065728;28;20020;-29
2021/07/24 00:21:37;;;;;;;3.15;2.95;;;26.40;64.30;;;;;;5066454;28;20396;-30
2021/07/24 00:24:03;;;;;;;3.28;3.05;;;26.40;64.30;;;;;;5067107;28;20032;-29
2021/07/24 00:26:29;;;;;;;3.35;3.05;;;26.40;64.10;;;;;;5062769;28;20021;-29
2021/07/24 00:28:54;;;;;;;3.00;2.80;;;26.50;63.80;;;;;;5064576;28;20025;-31
2021/07/24 00:31:20;;;;;;;2.90;2.70;;;26.50;63.80;;;;;;5065577;28;20449;-25
2021/07/24 00:33:46;;;;;;;3.03;2.83;;;26.40;63.80;;;;;;5049106;28;20028;-26
2021/07/24 00:36:11;;;;;;;3.25;3.05;;;26.40;63.90;;;;;;5043367;28;20517;-27
2021/07/24 00:38:39;;;;;;;3.00;2.80;;;26.40;64.20;;;;;;5062859;28;20050;-26
2021/07/24 00:41:09;;;;;;;2.55;2.45;;;26.40;64.60;;;;;;5061697;28;20528;-26
2021/07/24 00:43:35;;;;;;;3.53;2.80;;;26.50;63.50;;;;;;5061770;28;20055;-28
2021/07/24 00:46:01;;;;;;;2.88;2.67;;;26.50;63.60;;;;;;5044920;28;20493;-35
2021/07/24 00:48:26;;;;;;;3.08;2.80;;;26.40;63.80;;;;;;5049330;28;20065;-26
2021/07/24 00:50:54;;;;;;;2.50;2.30;;;26.40;64.70;;;;;;5048421;28;20557;-26
2021/07/24 00:53:33;;;;;;;2.92;2.72;;;26.30;64.20;;;;;;5065300;28;20119;-27
2021/07/24 00:55:59;;;;;;;3.05;2.85;;;26.30;64.00;;;;;;5049205;28;20059;-31
2021/07/24 00:58:30;;;;;;;2.78;2.58;;;26.40;64.60;;;;;;5049271;28;20047;-30
2021/07/24 01:00:55;;;;;;;2.90;2.70;;;26.40;63.80;;;;;;5069486;28;20512;-29
2021/07/24 01:03:24;;;;;;;2.83;2.67;;;26.40;64.30;;;;;;5068289;28;20025;-27
2021/07/24 01:05:52;;;;;;;2.50;2.40;;;26.40;63.50;;;;;;5047124;28;20059;-26
2021/07/24 01:08:18;;;;;;;2.92;2.72;;;26.40;63.60;;;;;;5060602;28;20560;-30
2021/07/24 01:10:43;;;;;;;2.35;2.25;;;26.40;63.40;;;;;;5065251;28;20033;-29
2021/07/24 01:13:09;;;;;;;3.10;2.90;;;26.40;63.90;;;;;;5053187;28;20521;-28
2021/07/24 01:15:35;;;;;;;3.20;3.00;;;26.40;64.60;;;;;;5040800;28;20104;-31
2021/07/24 01:18:00;;;;;;;2.80;2.60;;;26.40;63.70;;;;;;5066204;28;20039;-32
2021/07/24 01:20:26;;;;;;;2.13;2.03;;;26.30;63.80;;;;;;5064703;28;20032;-30
2021/07/24 01:22:52;;;;;;;2.88;2.67;;;26.40;64.10;;;;;;5046557;28;20028;-30
2021/07/24 01:25:18;;;;;;;3.65;2.70;;;26.30;64.20;;;;;;5042159;28;20020;-27
2021/07/24 01:27:44;;;;;;;2.85;2.65;;;26.30;64.00;;;;;;5070915;28;20052;-30
2021/07/24 01:30:11;;;;;;;2.58;2.40;;;26.30;64.00;;;;;;5056405;28;20032;-32
2021/07/24 01:32:36;;;;;;;2.80;2.47;;;26.30;64.00;;;;;;5058376;28;20108;-30
2021/07/24 01:35:02;;;;;;;2.28;2.15;;;26.30;65.00;;;;;;5060783;28;20162;-27
2021/07/24 01:37:27;;;;;;;3.00;2.80;;;26.30;64.10;;;;;;5064856;28;20032;-34
2021/07/24 01:39:53;;;;;;;2.38;2.17;;;26.20;64.10;;;;;;5076571;28;20028;-30
2021/07/24 01:42:19;;;;;;;2.30;2.10;;;26.30;64.10;;;;;;5065469;28;20037;-30
2021/07/24 01:44:44;;;;;;;2.72;2.53;;;26.30;64.20;;;;;;5060054;28;20517;-26
2021/07/24 01:47:10;;;;;;;2.53;2.42;;;26.30;64.00;;;;;;5065844;28;20477;-32
2021/07/24 01:52:48;;;;;;;2.60;2.50;;;26.30;64.20;;;;;;5071064;28;20175;-33
2021/07/24 01:55:32;;;;;;;2.80;2.60;;;26.20;64.40;;;;;;5043598;28;20044;-29
2021/07/24 01:57:57;;;;;;;2.88;2.67;;;26.20;64.20;;;;;;5044537;28;20287;-30
2021/07/24 02:00:23;;;;;;;2.70;2.50;;;26.20;64.30;;;;;;5032725;28;20398;-27
2021/07/24 02:02:52;;;;;;;3.00;2.80;;;26.20;64.10;;;;;;5042245;28;20028;-26
2021/07/24 02:05:41;;;;;;;3.00;2.80;;;26.20;64.10;;;;;;5043581;28;20173;-30
2021/07/24 02:08:08;;;;;;;2.97;2.78;;;26.20;64.10;;;;;;5039576;28;20033;-36
2021/07/24 02:10:33;;;;;;;2.42;2.30;;;26.20;64.60;;;;;;5052665;28;20393;-28
2021/07/24 02:12:59;;;;;;;2.95;2.75;;;26.20;63.90;;;;;;5040453;28;20037;-36
2021/07/24 02:15:25;;;;;;;2.65;2.53;;;26.30;63.70;;;;;;5060976;28;20098;-39
2021/07/24 02:17:50;;;;;;;2.83;2.63;;;26.20;63.80;;;;;;5047101;28;20491;-28
2021/07/24 02:20:19;;;;;;;2.70;2.50;;;26.20;63.70;;;;;;5037560;28;20029;-26
2021/07/24 02:22:44;;;;;;;2.50;2.38;;;26.20;63.60;;;;;;5069041;28;20123;-30
2021/07/24 02:25:10;;;;;;;2.28;2.17;;;26.20;63.90;;;;;;5066251;28;20170;-30
2021/07/24 02:27:38;;;;;;;2.75;2.55;;;26.20;64.00;;;;;;5068722;28;20040;-27
2021/07/24 02:30:04;;;;;;;2.50;2.30;;;26.20;63.40;;;;;;5068878;28;20135;-28
2021/07/24 02:32:30;;;;;;;2.70;2.50;;;26.20;63.40;;;;;;5072342;28;20035;-27
2021/07/24 02:34:56;;;;;;;2.95;2.65;;;26.20;63.70;;;;;;5068521;28;20028;-33
2021/07/24 02:37:22;;;;;;;2.63;2.42;;;26.10;64.10;;;;;;5068990;28;20106;-28
2021/07/24 02:39:47;;;;;;;3.30;2.45;;;26.10;63.80;;;;;;5070053;28;20033;-31
2021/07/24 02:42:14;;;;;;;2.60;2.50;;;26.00;64.40;;;;;;5067794;28;20173;-29
2021/07/24 02:44:39;;;;;;;2.58;2.38;;;26.00;63.90;;;;;;5069179;28;20556;-27
2021/07/24 02:47:05;;;;;;;2.83;2.63;;;26.10;63.60;;;;;;5068650;28;20115;-29
2021/07/24 02:49:30;;;;;;;2.63;2.53;;;26.20;63.10;;;;;;5071054;28;20440;-27
2021/07/24 02:51:56;;;;;;;2.42;2.25;;;26.20;63.20;;;;;;5069963;28;20489;-27
2021/07/24 02:54:22;;;;;;;2.60;2.40;;;26.20;63.60;;;;;;5066625;28;20027;-30
2021/07/24 02:56:47;;;;;;;2.42;2.33;;;26.20;63.60;;;;;;5065813;28;20029;-39
2021/07/24 02:59:13;;;;;;;2.72;2.58;;;26.20;63.40;;;;;;5065152;28;20028;-30
2021/07/24 03:01:40;;;;;;;2.33;2.15;;;26.20;63.50;;;;;;5067605;28;20078;-28
2021/07/24 03:04:06;;;;;;;2.30;2.20;;;26.20;63.60;;;;;;5067471;28;20025;-32
2021/07/24 03:06:31;;;;;;;2.30;2.20;;;26.20;63.50;;;;;;5062836;28;20512;-29
2021/07/24 03:08:57;;;;;;;3.22;2.92;;;26.20;63.60;;;;;;5067582;28;20070;-34
2021/07/24 03:11:22;;;;;;;2.53;2.40;;;26.10;63.40;;;;;;5063057;28;20037;-31
2021/07/24 03:13:48;;;;;;;2.72;2.53;;;26.10;63.30;;;;;;5062518;28;20085;-27
2021/07/24 03:16:13;;;;;;;2.53;2.17;;;26.10;63.70;;;;;;5064994;28;20060;-36
2021/07/24 03:18:39;;;;;;;2.72;2.53;;;26.10;64.00;;;;;;5065336;28;20020;-29
2021/07/24 03:21:05;;;;;;;2.95;2.63;;;26.00;63.90;;;;;;5065999;28;20025;-28
2021/07/24 03:23:30;;;;;;;2.60;2.40;;;25.90;63.90;;;;;;5061799;28;20025;-30
2021/07/24 03:25:56;;;;;;;3.25;2.40;;;26.00;63.80;;;;;;5064785;28;20438;-37
2021/07/24 03:28:21;;;;;;;2.80;2.60;;;25.90;64.20;;;;;;5064264;28;20037;-28
2021/07/24 03:30:47;;;;;;;2.53;2.33;;;25.90;63.90;;;;;;5072026;28;20104;-29
2021/07/24 03:33:12;;;;;;;2.60;2.40;;;25.90;64.50;;;;;;5066336;28;20401;-29
2021/07/24 03:35:38;;;;;;;2.35;2.25;;;25.90;64.20;;;;;;5066529;28;20150;-28
2021/07/24 03:38:04;;;;;;;2.63;2.42;;;26.00;63.80;;;;;;5067488;28;20055;-34
2021/07/24 03:40:30;;;;;;;2.58;2.47;;;26.00;63.80;;;;;;5066027;28;20029;-27
2021/07/24 03:42:56;;;;;;;2.60;2.40;;;26.10;63.60;;;;;;5067717;28;20017;-26
2021/07/24 03:45:22;;;;;;;2.90;2.58;;;26.10;63.50;;;;;;5065293;28;20402;-30
2021/07/24 03:47:47;;;;;;;3.03;2.78;;;26.20;63.20;;;;;;5066047;28;20048;-27
2021/07/24 03:50:13;;;;;;;2.47;2.33;;;26.10;63.30;;;;;;5071039;28;20119;-28
2021/07/24 03:52:38;;;;;;;2.78;2.58;;;25.90;64.50;;;;;;5065646;28;20033;-30
2021/07/24 03:55:04;;;;;;;2.10;2.00;;;25.90;64.10;;;;;;5069292;28;20503;-29
2021/07/24 03:57:30;;;;;;;2.72;2.53;;;25.90;64.00;;;;;;5065009;28;20047;-29
2021/07/24 03:59:55;;;;;;;2.90;2.70;;;25.90;63.60;;;;;;5065810;28;20038;-30
2021/07/24 04:02:23;;;;;;;3.13;2.92;;;25.90;63.80;;;;;;5066807;28;20040;-32
2021/07/24 04:04:52;;;;;;;2.88;2.67;;;26.00;63.50;;;;;;5052251;28;20051;-29
2021/07/24 04:07:21;;;;;;;2.70;2.55;;;25.90;63.90;;;;;;5067347;28;20037;-28
2021/07/24 04:09:46;;;;;;;2.75;2.55;;;26.00;63.20;;;;;;5031063;28;20079;-30
2021/07/24 04:12:12;;;;;;;2.75;2.55;;;26.00;63.80;;;;;;5043942;28;20048;-28
2021/07/24 04:14:37;;;;;;;2.85;2.60;;;25.90;63.80;;;;;;5043791;28;20035;-29
2021/07/24 04:17:03;;;;;;;2.80;2.63;;;26.00;63.70;;;;;;5064148;28;20033;-29
2021/07/24 04:19:30;;;;;;;2.88;2.67;;;25.90;63.60;;;;;;5065097;28;20048;-28
2021/07/24 04:21:56;;;;;;;2.65;2.45;;;25.80;64.10;;;;;;5063759;28;20055;-30
2021/07/24 04:24:21;;;;;;;2.83;2.63;;;25.80;64.20;;;;;;5059942;28;20449;-31
2021/07/24 04:26:47;;;;;;;2.85;2.65;;;25.90;63.60;;;;;;5060586;28;20033;-33
2021/07/24 04:29:12;;;;;;;2.38;2.17;;;25.90;64.00;;;;;;5061469;28;20028;-26
2021/07/24 04:31:38;;;;;;;2.88;2.67;;;25.80;63.80;;;;;;5066397;28;20020;-34
2021/07/24 04:34:03;;;;;;;4.03;3.17;;;25.80;63.90;;;;;;5065422;28;20033;-30
2021/07/24 04:36:29;;;;;;;2.95;2.75;;;25.90;64.00;;;;;;5068513;28;20063;-30
2021/07/24 04:38:54;;;;;;;2.50;2.40;;;25.80;64.10;;;;;;5065664;28;20033;-30
2021/07/24 04:41:21;;;;;;;2.88;2.40;;;25.80;63.80;;;;;;5065569;28;20028;-28
2021/07/24 04:43:46;;;;;;;2.45;2.35;;;25.90;64.40;;;;;;5065575;28;20155;-31
2021/07/24 04:46:13;;;;;;;2.50;2.30;;;25.90;63.90;;;;;;5068087;28;20099;-30
2021/07/24 04:48:38;;;;;;;2.95;2.75;;;25.90;64.60;;;;;;5067023;28;20181;-28
2021/07/24 04:51:04;;;;;;;2.88;2.67;;;25.90;63.10;;;;;;5067574;28;20099;-31
2021/07/24 04:53:29;;;;;;;2.85;2.65;;;25.90;63.20;;;;;;5047777;28;20495;-26
2021/07/24 04:55:55;;;;;;;2.70;2.50;;;25.90;63.80;;;;;;5046698;28;20482;-29
2021/07/24 04:58:21;;;;;;;2.60;2.47;;;25.80;63.80;;;;;;5067323;28;20040;-28
2021/07/24 05:00:47;;;;;;;2.60;2.40;;;25.90;63.80;;;;;;5066802;28;20078;-31
2021/07/24 05:03:13;;;;;;;2.40;2.30;;;25.70;63.90;;;;;;5046330;28;20024;-29
2021/07/24 05:05:39;;;;;;;2.65;2.47;;;25.70;64.30;;;;;;5048334;28;20024;-30
2021/07/24 05:08:07;;;;;;;3.30;3.10;;;25.70;64.00;;;;;;5065241;28;20629;-30
2021/07/24 05:10:32;;;;;;;2.75;2.55;;;25.90;63.10;;;;;;5047645;28;20060;-31
2021/07/24 05:12:58;;;;;;;2.70;2.50;;;26.00;63.00;;;;;;5065121;28;20506;-35
2021/07/24 05:15:24;;;;;;;2.10;2.00;;;26.00;63.00;;;;;;5061751;28;20075;-27
2021/07/24 05:17:50;;;;;;;2.83;2.63;;;25.90;63.50;;;;;;5060894;28;20029;-28
2021/07/24 05:20:15;;;;;;;2.58;2.47;;;25.80;63.40;;;;;;5070915;28;20021;-28
2021/07/24 05:22:41;;;;;;;2.90;2.50;;;25.90;63.30;;;;;;5065216;28;20032;-38
2021/07/24 05:25:07;;;;;;;2.78;2.58;;;25.90;63.50;;;;;;5062829;28;20547;-35
2021/07/24 05:27:32;;;;;;;3.10;2.90;;;25.90;63.50;;;;;;5061228;28;20044;-28
2021/07/24 05:29:58;;;;;;;2.65;2.45;;;25.90;63.40;;;;;;5064718;28;20037;-33
2021/07/24 05:32:23;;;;;;;3.00;2.80;;;25.90;63.10;;;;;;5066853;28;20047;-29
2021/07/24 05:34:49;;;;;;;2.72;2.53;;;26.00;62.70;;;;;;5072621;28;20409;-30
2021/07/24 05:37:15;;;;;;;2.85;2.72;;;26.00;63.20;;;;;;5065798;28;20094;-29
2021/07/24 05:39:40;;;;;;;2.80;2.60;;;26.00;62.90;;;;;;5069131;28;20025;-26
2021/07/24 05:42:06;;;;;;;2.72;2.53;;;25.90;63.20;;;;;;5067488;28;20432;-36
2021/07/24 05:44:31;;;;;;;2.95;2.75;;;25.90;63.40;;;;;;5062622;28;20064;-28
2021/07/24 05:46:59;;;;;;;2.72;2.53;;;25.80;63.30;;;;;;5060031;28;20033;-32
2021/07/24 05:49:25;;;;;;;3.05;2.85;;;25.80;63.80;;;;;;5050470;28;20024;-28
2021/07/24 05:51:50;;;;;;;2.90;2.70;;;26.00;62.60;;;;;;5069289;28;20028;-30
2021/07/24 05:54:17;;;;;;;2.83;2.60;;;25.90;61.10;;;;;;5070858;28;20540;-31
2021/07/24 05:56:43;;;;;;;2.83;2.63;;;25.60;61.20;;;;;;5070031;28;20150;-30
2021/07/24 05:59:09;;;;;;;3.35;3.03;;;25.60;60.40;;;;;;5072163;28;20104;-32
2021/07/24 06:01:34;;;;;;;3.05;2.85;;;25.60;60.30;;;;;;5069670;28;20020;-30
2021/07/24 06:04:00;;;;;;;2.40;2.20;;;25.40;60.50;;;;;;5066358;28;20166;-37
2021/07/24 06:06:26;;;;;;;2.87;2.50;;;25.40;60.60;;;;;;4710095;28;10000177;-34
2021/07/24 06:08:52;;;;;;;3.65;2.63;;;25.30;61.90;;;;;;5045027;28;20724;-30
2021/07/24 06:11:17;;;;;;;2.72;2.42;;;25.00;61.80;;;;;;5054243;28;20041;-30
2021/07/24 06:13:43;;;;;;;2.70;1.90;;;25.00;61.60;;;;;;5061521;28;20362;-41
2021/07/24 06:16:09;;;;;;;2.03;1.83;;;24.70;62.60;;;;;;5056825;28;20101;-36
2021/07/24 06:18:37;;;;;;;2.53;2.13;;;24.50;63.50;;;;;;5064399;28;20491;-43
2021/07/24 06:21:02;;;;;;;3.28;2.45;;;24.60;63.00;;;;;;5068432;28;20032;-29
2021/07/24 06:23:28;;;;;;;2.20;2.00;;;24.50;63.30;;;;;;5070371;28;20031;-30
2021/07/24 06:25:53;;;;;;;3.80;2.80;;;24.50;63.20;;;;;;5072509;28;20060;-34
2021/07/24 06:28:21;;;;;;;2.00;1.90;;;24.40;63.70;;;;;;5063797;28;20041;-31
2021/07/24 06:30:46;;;;;;;1.95;1.77;;;24.70;62.70;;;;;;5070990;28;20833;-35
2021/07/24 06:33:12;;;;;;;2.28;1.92;;;24.70;62.60;;;;;;5064549;28;20205;-32
2021/07/24 06:35:38;;;;;;;2.55;2.20;;;24.70;62.30;;;;;;5059910;28;20598;-28
2021/07/24 06:38:03;;;;;;;2.47;2.30;;;24.70;62.40;;;;;;5064011;28;20085;-28
2021/07/24 06:40:29;;;;;;;2.40;2.20;;;24.80;62.40;;;;;;5068799;28;20024;-29
2021/07/24 06:42:55;;;;;;;2.42;1.92;;;24.70;62.70;;;;;;5063007;28;20425;-31
2021/07/24 06:45:22;;;;;;;1.70;1.55;;;24.60;62.80;;;;;;5060901;28;20024;-32
2021/07/24 06:47:47;;;;;;;1.85;1.75;;;24.50;62.90;;;;;;5066162;28;20048;-26
2021/07/24 06:50:13;;;;;;;2.15;1.88;;;24.60;62.70;;;;;;5061405;28;20035;-29
2021/07/24 06:52:39;;;;;;;2.13;1.50;;;24.40;63.10;;;;;;5063104;28;20028;-31
2021/07/24 06:55:05;;;;;;;2.30;1.67;;;24.20;63.50;;;;;;5060897;28;20031;-28
2021/07/24 06:57:31;;;;;;;1.88;1.52;;;24.30;63.40;;;;;;5059359;28;20041;-28
2021/07/24 06:59:57;;;;;;;2.03;1.48;;;24.40;64.10;;;;;;5056970;28;20441;-30
2021/07/24 07:02:22;;;;;;;1.98;1.70;;;24.30;63.50;;;;;;5064644;28;20032;-28
2021/07/24 07:04:48;;;;;;;1.50;1.30;;;24.40;63.40;;;;;;5066916;28;20035;-36
2021/07/24 07:07:14;;;;;;;2.28;1.77;;;24.40;62.90;;;;;;5065054;28;20048;-31
2021/07/24 07:09:39;;;;;;;1.35;1.25;;;24.50;63.10;;;;;;5052950;28;20043;-37
2021/07/24 07:12:05;;;;;;;2.72;1.70;;;24.40;63.20;;;;;;5054219;28;20127;-40
2021/07/24 07:14:31;;;;;;;1.55;1.42;;;24.30;63.30;;;;;;5051875;28;20021;-34
2021/07/24 07:16:56;;;;;;;4.25;1.73;;;24.30;63.70;;;;;;5057079;28;20519;-30
2021/07/24 07:19:22;;;;;;;6.38;1.50;;;24.30;63.70;;;;;;5057406;28;20021;-28
2021/07/24 07:21:48;;;;;;;1.88;1.58;;;24.40;64.80;;;;;;5051515;28;20041;-28
2021/07/24 07:24:13;;;;;;;1.85;1.60;;;24.40;64.30;;;;;;5052881;28;20308;-32
2021/07/24 07:26:39;;;;;;;2.10;1.70;;;24.30;64.40;;;;;;5030794;28;20037;-41
2021/07/24 07:29:05;;;;;;;2.15;1.65;;;24.30;64.30;;;;;;5048581;28;20043;-29
2021/07/24 07:31:31;;;;;;;1.75;1.58;;;24.30;64.30;;;;;;5052185;28;20090;-30
2021/07/24 07:33:57;;;;;;;2.30;1.88;;;24.30;64.20;;;;;;5048673;28;20103;-25
2021/07/24 07:36:22;;;;;;;4.78;1.75;;;24.30;63.90;;;;;;5056465;28;20028;-27
2021/07/24 07:38:48;;;;;;;2.95;1.67;;;24.30;64.00;;;;;;5058400;28;20028;-26
2021/07/24 07:41:13;;;;;;;1.75;1.50;;;24.40;63.40;;;;;;5057742;28;20040;-29
2021/07/24 07:43:39;;;;;;;3.83;1.80;;;24.30;63.60;;;;;;5060277;28;20192;-30
2021/07/24 07:46:05;;;;;;;1.85;1.48;;;24.10;63.70;;;;;;5050211;28;20036;-29
2021/07/24 07:48:35;;;;;;;2.13;1.30;;;24.20;63.40;;;;;;5056822;28;20036;-31
2021/07/24 07:51:01;;;;;;;1.90;1.30;;;24.40;62.90;;;;;;5060301;28;20036;-28
2021/07/24 07:53:26;;;;;;;1.30;1.15;;;24.40;62.80;;;;;;5053672;28;20025;-29
2021/07/24 07:55:52;;;;;;;2.95;1.38;;;24.40;63.10;;;;;;5065049;28;20028;-28
2021/07/24 07:58:17;;;;;;;2.10;1.55;;;24.10;64.10;;;;;;5064073;28;20770;-29
2021/07/24 08:00:43;;;;;;;1.33;1.00;;;24.20;63.80;;;;;;5066800;28;20021;-26
2021/07/24 08:03:09;;;;;;;1.40;1.10;;;24.20;64.20;;;;;;5065229;28;20068;-27
2021/07/24 08:05:34;;;;;;;1.90;1.30;;;24.20;64.20;;;;;;5063329;28;20099;-39
2021/07/24 08:08:00;;;;;;;2.05;1.67;;;24.40;64.10;;;;;;5057877;28;20055;-35
2021/07/24 08:10:26;;;;;;;1.27;1.08;;;24.40;64.70;;;;;;5055440;28;20123;-29
2021/07/24 08:12:52;;;;;;;3.38;1.63;;;24.40;64.20;;;;;;5060224;28;20394;-28
2021/07/24 08:15:18;;;;;;;2.35;1.50;;;24.40;64.90;;;;;;5062065;28;20535;-28
2021/07/24 08:17:44;;;;;;;1.95;1.30;;;24.40;64.00;;;;;;5065523;28;20119;-24
2021/07/24 08:20:10;;;;;;;1.55;1.40;;;24.60;63.60;;;;;;5063628;28;20489;-25
2021/07/24 08:22:35;;;;;;;3.72;1.40;;;24.60;63.50;;;;;;5052955;28;20099;-27
2021/07/24 08:25:02;;;;;;;1.42;1.10;;;24.70;63.40;;;;;;5062159;28;20086;-27
2021/07/24 08:27:27;;;;;;;1.70;1.30;;;24.70;63.10;;;;;;5065963;28;20460;-29
2021/07/24 08:29:53;;;;;;;4.45;1.42;;;24.80;63.10;;;;;;5072952;28;20063;-27
2021/07/24 08:32:18;;;;;;;2.97;1.27;;;24.90;63.00;;;;;;5075737;28;20036;-31
2021/07/24 08:34:48;;;;;;;1.20;1.10;;;24.90;62.80;;;;;;5071972;28;20037;-26
2021/07/24 08:37:14;;;;;;;2.00;1.13;;;24.90;63.10;;;;;;5068330;28;20051;-25
2021/07/24 08:39:40;;;;;;;2.45;1.40;;;24.90;63.10;;;;;;5070762;28;20515;-29
2021/07/24 08:42:07;;;;;;;1.20;1.08;;;24.90;63.00;;;;;;5060834;28;20040;-27
2021/07/24 08:44:36;;;;;;;1.27;1.17;;;24.80;63.10;;;;;;5073776;28;20028;-26
2021/07/24 08:47:03;;;;;;;1.58;1.48;;;24.90;63.10;;;;;;5050879;28;20072;-30
2021/07/24 08:49:29;;;;;;;2.45;1.10;;;25.00;63.00;;;;;;5046528;28;20024;-28
2021/07/24 08:51:54;;;;;;;1.77;1.60;;;25.00;62.90;;;;;;5065902;28;20028;-28
2021/07/24 08:54:20;;;;;;;2.47;1.20;;;25.00;63.00;;;;;;5025635;28;20033;-29
2021/07/24 08:56:46;;;;;;;1.20;1.02;;;25.00;62.90;;;;;;5060695;28;20035;-27
2021/07/24 08:59:14;;;;;;;1.50;1.40;;;25.00;62.90;;;;;;5048319;28;20090;-31
2021/07/24 09:01:41;;;;;;;3.05;1.30;;;25.10;62.80;;;;;;5048655;28;20031;-30
2021/07/24 09:04:06;;;;;;;1.08;0.98;;;25.10;62.80;;;;;;5063843;28;20505;-30
2021/07/24 09:06:32;;;;;;;1.45;1.00;;;25.10;62.70;;;;;;5043702;28;20031;-28
2021/07/24 09:08:58;;;;;;;1.45;1.35;;;25.10;62.70;;;;;;5060935;28;20032;-31
2021/07/24 09:11:23;;;;;;;1.90;1.33;;;25.20;62.50;;;;;;5071235;28;20052;-30
2021/07/24 09:13:49;;;;;;;1.35;1.20;;;25.20;62.50;;;;;;5071266;28;20103;-32
2021/07/24 09:16:15;;;;;;;1.27;1.17;;;25.20;62.30;;;;;;5049858;28;20473;-32
2021/07/24 09:18:41;;;;;;;1.50;1.33;;;25.20;62.20;;;;;;5074602;28;20074;-30
2021/07/24 09:21:06;;;;;;;1.67;1.33;;;25.20;62.30;;;;;;5067879;28;20556;-30
2021/07/24 09:23:35;;;;;;;2.53;1.30;;;25.20;62.10;;;;;;5064912;28;20140;-27
2021/07/24 09:26:04;;;;;;;1.40;1.20;;;25.20;62.30;;;;;;5067238;28;20040;-29
2021/07/24 09:28:29;;;;;;;1.30;1.20;;;25.30;62.30;;;;;;5069193;28;20459;-29
2021/07/24 09:30:55;;;;;;;1.10;1.00;;;25.40;61.90;;;;;;5067241;28;20028;-28
2021/07/24 09:33:20;;;;;;;1.20;1.10;;;25.50;61.60;;;;;;5062508;28;20036;-35
2021/07/24 09:35:53;;;;;;;1.40;1.00;;;25.40;61.60;;;;;;5070626;28;20143;-25
2021/07/24 09:38:29;;;;;;;1.45;1.35;;;25.50;61.60;;;;;;5063750;28;20545;-26
2021/07/24 09:40:59;;;;;;;1.52;1.23;;;25.50;61.30;;;;;;5064192;28;20037;-27
2021/07/24 09:43:39;;;;;;;1.52;1.20;;;25.50;61.40;;;;;;5068210;28;20073;-25
2021/07/24 09:46:20;;;;;;;2.33;1.10;;;25.50;61.60;;;;;;5059707;28;20052;-24
2021/07/24 09:48:47;;;;;;;1.58;1.48;;;25.50;61.70;;;;;;5059663;28;20041;-38
2021/07/24 09:51:13;;;;;;;1.35;1.20;;;25.40;61.90;;;;;;5044163;28;20029;-31
2021/07/24 09:53:45;;;;;;;1.40;1.20;;;25.40;62.10;;;;;;5062764;28;20055;-29
2021/07/24 09:56:15;;;;;;;2.15;1.23;;;25.50;62.00;;;;;;5058914;28;20062;-32
2021/07/24 09:58:41;;;;;;;1.10;1.00;;;25.40;62.10;;;;;;5061804;28;23305;-24
2021/07/24 10:01:11;;;;;;;1.08;1.02;;;25.40;62.00;;;;;;5062514;28;20032;-32
2021/07/24 10:03:38;;;;;;;1.30;1.20;;;25.40;62.10;;;;;;5068122;28;20051;-26
2021/07/24 10:06:14;;;;;;;2.63;1.00;;;25.40;62.30;;;;;;5065767;28;20037;-28
2021/07/24 10:08:40;;;;;;;1.00;1.00;;;25.40;62.30;;;;;;5070944;28;20111;-26
2021/07/24 10:11:06;;;;;;;1.33;1.23;;;25.40;62.40;;;;;;5076458;28;20044;-23
2021/07/24 10:13:32;;;;;;;0.98;0.98;;;25.40;62.40;;;;;;5064954;28;20048;-30
2021/07/24 10:15:57;;;;;;;1.45;1.27;;;25.40;62.50;;;;;;5050307;28;20504;-34
2021/07/24 10:18:23;;;;;;;1.05;0.95;;;25.50;62.60;;;;;;5051501;28;20077;-29
2021/07/24 10:20:50;;;;;;;1.30;1.20;;;25.40;62.60;;;;;;5045010;28;20033;-26
2021/07/24 10:23:19;;;;;;;1.48;1.10;;;25.40;62.60;;;;;;5069977;28;20511;-25
2021/07/24 10:25:52;;;;;;;1.50;1.40;;;25.40;62.70;;;;;;5064675;28;20043;-29
2021/07/24 10:28:36;;;;;;;2.10;0.98;;;25.40;62.70;;;;;;5067338;28;20446;-27
2021/07/24 10:31:06;;;;;;;;;;;25.40;62.70;;;;;;5068440;28;20029;-27
2021/07/24 10:33:32;;;;;;;1.08;0.80;;;25.40;62.70;;;;;;5069876;28;19958;-26
2021/07/24 10:36:11;;;;;;;1.13;1.10;;;25.40;62.90;;;;;;5047297;28;20024;-33
2021/07/24 10:38:37;;;;;;;1.30;1.08;;;25.40;62.90;;;;;;5055557;28;20033;-26
2021/07/24 10:41:21;;;;;;;1.92;1.10;;;25.40;62.90;;;;;;5064821;28;20082;-35
2021/07/24 10:44:05;;;;;;;1.40;1.13;;;25.40;63.00;;;;;;5065080;28;20024;-26
2021/07/24 10:46:46;;;;;;;;;;;25.50;62.70;;;;;;5064254;28;20141;-29
2021/07/24 10:49:20;;;;;;;1.25;0.90;;;25.50;62.80;;;;;;4708324;28;9999986;-26
2021/07/24 10:52:05;;;;;;;1.17;1.00;;;25.50;62.80;;;;;;5066739;28;20036;-27
2021/07/24 10:54:51;;;;;;;1.20;1.10;;;25.50;62.90;;;;;;5065657;28;20035;-27
2021/07/24 10:57:45;;;;;;;2.50;1.17;;;25.40;63.10;;;;;;5059259;28;20043;-26
2021/07/24 11:00:30;;;;;;;1.58;1.35;;;25.40;63.10;;;;;;5060190;28;20722;-30
2021/07/24 11:02:56;;;;;;;1.08;1.00;;;25.40;63.00;;;;;;5063906;28;20020;-28
2021/07/24 11:05:25;;;;;;;1.00;0.90;;;25.40;63.20;;;;;;5045495;28;20039;-29
2021/07/24 11:07:51;;;;;;;1.92;1.20;;;25.30;63.40;;;;;;5047129;28;20102;-30
2021/07/24 11:10:17;;;;;;;1.13;1.02;;;25.40;63.50;;;;;;5060055;28;20036;-32
2021/07/24 11:12:42;;;;;;;3.20;1.30;;;25.40;63.40;;;;;;5045898;28;20041;-33
2021/07/24 11:15:11;;;;;;;2.22;1.30;;;25.50;63.20;;;;;;5061354;28;20668;-28
2021/07/24 11:17:37;;;;;;;2.08;1.27;;;25.50;63.00;;;;;;5059964;28;20035;-30
2021/07/24 11:20:08;;;;;;;2.20;1.38;;;25.70;62.90;;;;;;5064951;28;20063;-28
2021/07/24 11:22:35;;;;;;;1.20;1.10;;;25.60;62.90;;;;;;5061704;28;20033;-33
2021/07/24 11:25:01;;;;;;;1.60;1.20;;;25.50;63.50;;;;;;5046840;28;20596;-28
2021/07/24 11:27:27;;;;;;;1.67;1.17;;;25.60;63.20;;;;;;5068000;28;20127;-30
2021/07/24 11:30:10;;;;;;;1.70;1.23;;;25.70;63.00;;;;;;5061685;28;20154;-26
2021/07/24 11:32:43;;;;;;;1.55;1.30;;;25.80;62.80;;;;;;5064761;28;20142;-27
2021/07/24 11:35:12;;;;;;;1.23;1.13;;;25.70;63.20;;;;;;5061852;28;20036;-30
2021/07/24 11:37:48;;;;;;;1.70;1.50;;;25.70;63.20;;;;;;5064456;28;20029;-27
2021/07/24 11:40:18;;;;;;;3.22;1.33;;;25.80;63.00;;;;;;5068596;28;20036;-32
2021/07/24 11:43:03;;;;;;;1.40;1.27;;;25.80;63.00;;;;;;5060316;28;20033;-29
2021/07/24 11:45:31;;;;;;;1.45;1.30;;;25.80;63.00;;;;;;5063375;28;20046;-29
2021/07/24 11:48:18;;;;;;;1.45;1.35;;;25.90;63.00;;;;;;5059412;28;20064;-33
2021/07/24 11:50:45;;;;;;;1.67;1.20;;;25.90;62.90;;;;;;5057168;28;20035;-29
2021/07/24 11:53:11;;;;;;;1.63;1.20;;;25.90;63.20;;;;;;5042195;28;20037;-27
2021/07/24 11:55:37;;;;;;;1.55;1.45;;;25.80;63.30;;;;;;5059714;28;20029;-30
2021/07/24 11:58:03;;;;;;;1.48;1.38;;;25.80;63.60;;;;;;5062008;28;20032;-27
2021/07/24 12:00:38;;;;;;;1.90;1.30;;;25.80;63.40;;;;;;5060870;28;20024;-26
2021/07/24 12:03:21;;;;;;;1.50;1.20;;;25.70;63.60;;;;;;5062389;28;20044;-28
2021/07/24 12:05:53;;;;;;;1.20;1.10;;;25.70;64.00;;;;;;5063742;28;20024;-37
2021/07/24 12:08:21;;;;;;;1.85;1.60;;;25.70;63.80;;;;;;5060740;28;20072;-34
2021/07/24 12:10:47;;;;;;;1.38;1.13;;;25.80;63.40;;;;;;5029729;28;20045;-28
2021/07/24 12:13:13;;;;;;;1.40;1.30;;;25.80;63.40;;;;;;5040966;28;20094;-33
2021/07/24 12:16:06;;;;;;;1.40;1.30;;;25.80;63.40;;;;;;5045223;28;20040;-31
2021/07/24 12:18:36;;;;;;;2.17;1.30;;;25.90;63.00;;;;;;5059512;28;20036;-39
2021/07/24 12:21:06;;;;;;;1.20;1.10;;;25.90;63.00;;;;;;5059555;28;20033;-35
2021/07/24 12:23:32;;;;;;;1.70;1.17;;;25.80;63.20;;;;;;5059971;28;20021;-33
2021/07/24 12:26:08;;;;;;;1.63;1.35;;;25.70;63.30;;;;;;5045656;28;20034;-32
2021/07/24 12:28:34;;;;;;;1.42;1.08;;;25.80;63.30;;;;;;5061155;28;20044;-31
2021/07/24 12:31:30;;;;;;;1.20;1.10;;;25.70;63.50;;;;;;5068162;28;20036;-33
2021/07/24 12:33:59;;;;;;;1.25;1.00;;;25.70;63.60;;;;;;5064646;28;20048;-33
2021/07/24 12:36:26;;;;;;;1.73;1.38;;;25.70;63.80;;;;;;5063160;28;20024;-30
2021/07/24 12:38:52;;;;;;;1.55;1.17;;;25.60;63.60;;;;;;5040133;28;20211;-29
2021/07/24 12:41:57;;;;;;;1.27;1.05;;;25.60;63.80;;;;;;5069890;28;20032;-30
2021/07/24 12:44:23;;;;;;;1.27;1.00;;;25.60;64.10;;;;;;5048585;28;20051;-30
2021/07/24 12:47:12;;;;;;;2.47;1.10;;;25.60;64.10;;;;;;5028541;28;20139;-28
2021/07/24 12:49:37;;;;;;;1.67;1.30;;;25.40;64.40;;;;;;5065477;28;20520;-33
2021/07/24 12:52:29;;;;;;;1.80;1.10;;;25.30;64.50;;;;;;5074605;28;20036;-28
2021/07/24 12:55:05;;;;;;;1.35;1.00;;;25.30;64.40;;;;;;5061377;28;20115;-33